sensor_id;sensor_type;location;lat;lon;timestamp;P1;durP1;ratioP1;P2;durP2;ratioP2
38901;SDS011;24661;53.566;9.910;2022-09-09T00:00:23;51.13;;;29.80;;
38901;SDS011;24661;53.566;9.910;2022-09-09T00:02:53;57.03;;;27.03;;
38901;SDS011;24661;53.566;9.910;2022-09-09T00:05:29;42.40;;;25.07;;
38901;SDS011;24661;53.566;9.910;2022-09-09T00:08:18;43.00;;;24.63;;
38901;SDS011;24661;53.566;9.910;2022-09-09T00:10:49;39.90;;;23.43;;
38901;SDS011;24661;53.566;9.910;2022-09-09T00:16:32;44.00;;;25.77;;
38901;SDS011;24661;53.566;9.910;2022-09-09T00:19:05;50.90;;;30.80;;
38901;SDS011;24661;53.566;9.910;2022-09-09T00:21:43;45.37;;;28.10;;
38901;SDS011;24661;53.566;9.910;2022-09-09T00:24:29;43.53;;;26.43;;
38901;SDS011;24661;53.566;9.910;2022-09-09T00:27:19;46.93;;;29.00;;
38901;SDS011;24661;53.566;9.910;2022-09-09T00:30:14;61.43;;;31.50;;
38901;SDS011;24661;53.566;9.910;2022-09-09T00:32:43;50.93;;;28.80;;
38901;SDS011;24661;53.566;9.910;2022-09-09T00:37:35;47.47;;;28.67;;
38901;SDS011;24661;53.566;9.910;2022-09-09T00:40:01;47.13;;;28.40;;
38901;SDS011;24661;53.566;9.910;2022-09-09T00:42:43;47.10;;;26.80;;
38901;SDS011;24661;53.566;9.910;2022-09-09T00:45:23;50.00;;;27.60;;
38901;SDS011;24661;53.566;9.910;2022-09-09T00:48:11;46.57;;;28.33;;
38901;SDS011;24661;53.566;9.910;2022-09-09T00:50:52;43.13;;;26.30;;
38901;SDS011;24661;53.566;9.910;2022-09-09T00:56:18;42.67;;;24.13;;
38901;SDS011;24661;53.566;9.910;2022-09-09T01:02:01;43.90;;;25.43;;
38901;SDS011;24661;53.566;9.910;2022-09-09T01:04:38;40.57;;;25.20;;
38901;SDS011;24661;53.566;9.910;2022-09-09T01:07:07;45.97;;;24.93;;
38901;SDS011;24661;53.566;9.910;2022-09-09T01:09:51;45.93;;;27.67;;
38901;SDS011;24661;53.566;9.910;2022-09-09T01:20:39;44.20;;;25.57;;
38901;SDS011;24661;53.566;9.910;2022-09-09T01:23:30;48.77;;;25.87;;
38901;SDS011;24661;53.566;9.910;2022-09-09T01:26:24;46.03;;;26.47;;
38901;SDS011;24661;53.566;9.910;2022-09-09T01:28:57;47.37;;;26.83;;
38901;SDS011;24661;53.566;9.910;2022-09-09T01:31:26;40.57;;;25.33;;
38901;SDS011;24661;53.566;9.910;2022-09-09T01:33:56;47.57;;;26.60;;
38901;SDS011;24661;53.566;9.910;2022-09-09T01:36:27;46.50;;;27.73;;
38901;SDS011;24661;53.566;9.910;2022-09-09T01:39:03;35.93;;;22.27;;
38901;SDS011;24661;53.566;9.910;2022-09-09T01:41:28;47.87;;;27.00;;
38901;SDS011;24661;53.566;9.910;2022-09-09T01:43:54;48.63;;;25.77;;
38901;SDS011;24661;53.566;9.910;2022-09-09T01:46:22;49.27;;;26.63;;
38901;SDS011;24661;53.566;9.910;2022-09-09T01:48:48;57.70;;;28.77;;
38901;SDS011;24661;53.566;9.910;2022-09-09T01:51:16;45.10;;;26.50;;
38901;SDS011;24661;53.566;9.910;2022-09-09T01:53:42;50.80;;;27.77;;
38901;SDS011;24661;53.566;9.910;2022-09-09T01:56:17;45.23;;;26.20;;
38901;SDS011;24661;53.566;9.910;2022-09-09T01:59:51;44.93;;;25.33;;
38901;SDS011;24661;53.566;9.910;2022-09-09T02:01:55;74.17;;;31.33;;
38901;SDS011;24661;53.566;9.910;2022-09-09T02:04:40;84.63;;;31.60;;
38901;SDS011;24661;53.566;9.910;2022-09-09T02:07:15;91.07;;;33.07;;
38901;SDS011;24661;53.566;9.910;2022-09-09T02:10:05;62.83;;;27.37;;
38901;SDS011;24661;53.566;9.910;2022-09-09T02:12:34;93.90;;;33.77;;
38901;SDS011;24661;53.566;9.910;2022-09-09T02:15:05;60.20;;;28.23;;
38901;SDS011;24661;53.566;9.910;2022-09-09T02:17:39;59.37;;;28.07;;
38901;SDS011;24661;53.566;9.910;2022-09-09T02:20:08;58.23;;;28.13;;
38901;SDS011;24661;53.566;9.910;2022-09-09T02:22:38;65.90;;;30.40;;
38901;SDS011;24661;53.566;9.910;2022-09-09T02:25:08;76.13;;;31.57;;
38901;SDS011;24661;53.566;9.910;2022-09-09T02:27:37;62.27;;;29.27;;
38901;SDS011;24661;53.566;9.910;2022-09-09T02:30:05;53.37;;;27.20;;
38901;SDS011;24661;53.566;9.910;2022-09-09T02:32:32;55.40;;;27.13;;
38901;SDS011;24661;53.566;9.910;2022-09-09T02:35:05;55.23;;;27.27;;
38901;SDS011;24661;53.566;9.910;2022-09-09T02:37:38;53.07;;;26.53;;
38901;SDS011;24661;53.566;9.910;2022-09-09T02:40:05;49.27;;;26.33;;
38901;SDS011;24661;53.566;9.910;2022-09-09T02:42:41;50.77;;;27.43;;
38901;SDS011;24661;53.566;9.910;2022-09-09T02:45:08;59.40;;;27.40;;
38901;SDS011;24661;53.566;9.910;2022-09-09T02:47:39;44.47;;;24.57;;
38901;SDS011;24661;53.566;9.910;2022-09-09T02:50:27;58.90;;;27.97;;
38901;SDS011;24661;53.566;9.910;2022-09-09T02:55:38;57.47;;;27.53;;
38901;SDS011;24661;53.566;9.910;2022-09-09T02:58:23;64.47;;;28.50;;
38901;SDS011;24661;53.566;9.910;2022-09-09T03:00:49;61.90;;;29.27;;
38901;SDS011;24661;53.566;9.910;2022-09-09T03:03:16;80.27;;;29.00;;
38901;SDS011;24661;53.566;9.910;2022-09-09T03:05:43;53.53;;;27.23;;
38901;SDS011;24661;53.566;9.910;2022-09-09T03:08:10;73.27;;;28.40;;
38901;SDS011;24661;53.566;9.910;2022-09-09T03:10:38;60.57;;;27.77;;
38901;SDS011;24661;53.566;9.910;2022-09-09T03:13:04;45.10;;;25.37;;
38901;SDS011;24661;53.566;9.910;2022-09-09T03:15:31;51.47;;;26.50;;
38901;SDS011;24661;53.566;9.910;2022-09-09T03:17:57;51.03;;;26.23;;
38901;SDS011;24661;53.566;9.910;2022-09-09T03:20:24;53.17;;;26.23;;
38901;SDS011;24661;53.566;9.910;2022-09-09T03:22:52;46.60;;;25.63;;
38901;SDS011;24661;53.566;9.910;2022-09-09T03:25:18;48.53;;;24.10;;
38901;SDS011;24661;53.566;9.910;2022-09-09T03:27:44;50.03;;;24.77;;
38901;SDS011;24661;53.566;9.910;2022-09-09T03:30:10;52.07;;;24.57;;
38901;SDS011;24661;53.566;9.910;2022-09-09T03:32:36;33.33;;;20.97;;
38901;SDS011;24661;53.566;9.910;2022-09-09T03:35:02;35.30;;;21.07;;
38901;SDS011;24661;53.566;9.910;2022-09-09T03:37:28;34.03;;;20.00;;
38901;SDS011;24661;53.566;9.910;2022-09-09T03:39:54;31.07;;;20.27;;
38901;SDS011;24661;53.566;9.910;2022-09-09T03:42:20;41.10;;;21.77;;
38901;SDS011;24661;53.566;9.910;2022-09-09T03:44:47;43.23;;;22.80;;
38901;SDS011;24661;53.566;9.910;2022-09-09T03:47:14;31.90;;;20.10;;
38901;SDS011;24661;53.566;9.910;2022-09-09T03:49:41;41.23;;;21.90;;
38901;SDS011;24661;53.566;9.910;2022-09-09T03:52:08;35.57;;;20.53;;
38901;SDS011;24661;53.566;9.910;2022-09-09T03:54:34;32.23;;;20.07;;
38901;SDS011;24661;53.566;9.910;2022-09-09T03:57:00;31.73;;;20.17;;
38901;SDS011;24661;53.566;9.910;2022-09-09T03:59:26;28.13;;;17.67;;
38901;SDS011;24661;53.566;9.910;2022-09-09T04:01:53;35.73;;;17.83;;
38901;SDS011;24661;53.566;9.910;2022-09-09T04:04:19;32.57;;;19.13;;
38901;SDS011;24661;53.566;9.910;2022-09-09T04:06:45;32.90;;;20.40;;
38901;SDS011;24661;53.566;9.910;2022-09-09T04:09:13;39.33;;;20.10;;
38901;SDS011;24661;53.566;9.910;2022-09-09T04:11:39;29.57;;;19.07;;
38901;SDS011;24661;53.566;9.910;2022-09-09T04:14:05;38.00;;;20.77;;
38901;SDS011;24661;53.566;9.910;2022-09-09T04:16:31;39.70;;;19.00;;
38901;SDS011;24661;53.566;9.910;2022-09-09T04:18:58;29.30;;;17.60;;
38901;SDS011;24661;53.566;9.910;2022-09-09T04:21:25;28.17;;;18.90;;
38901;SDS011;24661;53.566;9.910;2022-09-09T04:23:51;23.47;;;15.23;;
38901;SDS011;24661;53.566;9.910;2022-09-09T04:26:17;24.90;;;17.57;;
38901;SDS011;24661;53.566;9.910;2022-09-09T04:28:43;25.30;;;16.67;;
38901;SDS011;24661;53.566;9.910;2022-09-09T04:31:10;26.73;;;17.77;;
38901;SDS011;24661;53.566;9.910;2022-09-09T04:33:40;31.73;;;18.77;;
38901;SDS011;24661;53.566;9.910;2022-09-09T04:36:06;33.70;;;19.17;;
38901;SDS011;24661;53.566;9.910;2022-09-09T04:38:33;27.03;;;17.23;;
38901;SDS011;24661;53.566;9.910;2022-09-09T04:40:59;32.20;;;18.13;;
38901;SDS011;24661;53.566;9.910;2022-09-09T04:43:25;30.93;;;19.23;;
38901;SDS011;24661;53.566;9.910;2022-09-09T04:45:51;34.53;;;19.77;;
38901;SDS011;24661;53.566;9.910;2022-09-09T04:48:17;25.57;;;16.67;;
38901;SDS011;24661;53.566;9.910;2022-09-09T04:50:43;29.30;;;18.40;;
38901;SDS011;24661;53.566;9.910;2022-09-09T04:53:09;26.87;;;18.07;;
38901;SDS011;24661;53.566;9.910;2022-09-09T04:55:35;32.27;;;19.47;;
38901;SDS011;24661;53.566;9.910;2022-09-09T04:58:07;26.93;;;18.33;;
38901;SDS011;24661;53.566;9.910;2022-09-09T05:00:36;26.83;;;17.67;;
38901;SDS011;24661;53.566;9.910;2022-09-09T05:03:03;26.87;;;17.87;;
38901;SDS011;24661;53.566;9.910;2022-09-09T05:05:34;25.23;;;16.07;;
38901;SDS011;24661;53.566;9.910;2022-09-09T05:08:01;32.63;;;19.90;;
38901;SDS011;24661;53.566;9.910;2022-09-09T05:10:32;27.07;;;16.63;;
38901;SDS011;24661;53.566;9.910;2022-09-09T05:12:59;22.33;;;14.50;;
38901;SDS011;24661;53.566;9.910;2022-09-09T05:15:25;22.63;;;14.77;;
38901;SDS011;24661;53.566;9.910;2022-09-09T05:17:51;24.43;;;14.93;;
38901;SDS011;24661;53.566;9.910;2022-09-09T05:20:18;27.10;;;16.33;;
38901;SDS011;24661;53.566;9.910;2022-09-09T05:22:44;29.43;;;17.10;;
38901;SDS011;24661;53.566;9.910;2022-09-09T05:25:09;25.03;;;15.00;;
38901;SDS011;24661;53.566;9.910;2022-09-09T05:27:35;29.17;;;16.30;;
38901;SDS011;24661;53.566;9.910;2022-09-09T05:30:01;25.90;;;14.03;;
38901;SDS011;24661;53.566;9.910;2022-09-09T05:32:27;19.33;;;14.23;;
38901;SDS011;24661;53.566;9.910;2022-09-09T05:34:57;19.97;;;13.57;;
38901;SDS011;24661;53.566;9.910;2022-09-09T05:37:24;20.70;;;12.87;;
38901;SDS011;24661;53.566;9.910;2022-09-09T05:39:50;24.53;;;14.37;;
38901;SDS011;24661;53.566;9.910;2022-09-09T05:42:16;16.70;;;13.03;;
38901;SDS011;24661;53.566;9.910;2022-09-09T05:44:42;27.37;;;14.43;;
38901;SDS011;24661;53.566;9.910;2022-09-09T05:47:09;25.77;;;14.70;;
38901;SDS011;24661;53.566;9.910;2022-09-09T05:49:36;19.23;;;12.80;;
38901;SDS011;24661;53.566;9.910;2022-09-09T05:52:02;17.13;;;12.03;;
38901;SDS011;24661;53.566;9.910;2022-09-09T05:54:28;16.57;;;11.17;;
38901;SDS011;24661;53.566;9.910;2022-09-09T05:56:55;20.47;;;11.57;;
38901;SDS011;24661;53.566;9.910;2022-09-09T05:59:21;17.83;;;11.33;;
38901;SDS011;24661;53.566;9.910;2022-09-09T06:01:48;14.90;;;10.80;;
38901;SDS011;24661;53.566;9.910;2022-09-09T06:04:14;15.07;;;9.53;;
38901;SDS011;24661;53.566;9.910;2022-09-09T06:06:41;10.60;;;7.83;;
38901;SDS011;24661;53.566;9.910;2022-09-09T06:09:07;12.53;;;7.33;;
38901;SDS011;24661;53.566;9.910;2022-09-09T06:11:35;11.60;;;7.07;;
38901;SDS011;24661;53.566;9.910;2022-09-09T06:14:03;12.70;;;7.43;;
38901;SDS011;24661;53.566;9.910;2022-09-09T06:16:30;10.20;;;6.93;;
38901;SDS011;24661;53.566;9.910;2022-09-09T06:18:59;10.83;;;6.07;;
38901;SDS011;24661;53.566;9.910;2022-09-09T06:21:28;11.27;;;6.20;;
38901;SDS011;24661;53.566;9.910;2022-09-09T06:23:56;9.63;;;5.57;;
38901;SDS011;24661;53.566;9.910;2022-09-09T06:26:23;10.80;;;5.63;;
38901;SDS011;24661;53.566;9.910;2022-09-09T06:28:51;9.27;;;5.10;;
38901;SDS011;24661;53.566;9.910;2022-09-09T06:31:19;12.13;;;6.00;;
38901;SDS011;24661;53.566;9.910;2022-09-09T06:33:50;10.57;;;5.73;;
38901;SDS011;24661;53.566;9.910;2022-09-09T06:36:17;12.60;;;5.80;;
38901;SDS011;24661;53.566;9.910;2022-09-09T06:38:48;10.77;;;5.10;;
38901;SDS011;24661;53.566;9.910;2022-09-09T06:41:15;10.80;;;5.73;;
38901;SDS011;24661;53.566;9.910;2022-09-09T06:43:43;14.07;;;6.27;;
38901;SDS011;24661;53.566;9.910;2022-09-09T06:46:11;10.13;;;5.37;;
38901;SDS011;24661;53.566;9.910;2022-09-09T06:48:38;7.30;;;4.93;;
38901;SDS011;24661;53.566;9.910;2022-09-09T06:51:10;8.17;;;4.67;;
38901;SDS011;24661;53.566;9.910;2022-09-09T06:53:45;9.80;;;4.30;;
38901;SDS011;24661;53.566;9.910;2022-09-09T06:58:51;7.33;;;5.07;;
38901;SDS011;24661;53.566;9.910;2022-09-09T07:01:18;8.93;;;4.33;;
38901;SDS011;24661;53.566;9.910;2022-09-09T07:03:49;8.63;;;4.43;;
38901;SDS011;24661;53.566;9.910;2022-09-09T07:06:18;5.90;;;4.20;;
38901;SDS011;24661;53.566;9.910;2022-09-09T07:08:49;7.97;;;4.27;;
38901;SDS011;24661;53.566;9.910;2022-09-09T07:11:17;4.40;;;3.77;;
38901;SDS011;24661;53.566;9.910;2022-09-09T07:13:43;8.97;;;4.40;;
38901;SDS011;24661;53.566;9.910;2022-09-09T07:16:10;5.37;;;3.67;;
38901;SDS011;24661;53.566;9.910;2022-09-09T07:18:38;6.37;;;3.57;;
38901;SDS011;24661;53.566;9.910;2022-09-09T07:21:05;8.83;;;3.90;;
38901;SDS011;24661;53.566;9.910;2022-09-09T07:23:31;6.43;;;4.13;;
38901;SDS011;24661;53.566;9.910;2022-09-09T07:25:58;8.43;;;3.67;;
38901;SDS011;24661;53.566;9.910;2022-09-09T07:28:25;6.30;;;4.27;;
38901;SDS011;24661;53.566;9.910;2022-09-09T07:31:00;5.43;;;3.30;;
38901;SDS011;24661;53.566;9.910;2022-09-09T07:33:28;8.73;;;3.63;;
38901;SDS011;24661;53.566;9.910;2022-09-09T07:36:05;10.17;;;3.50;;
38901;SDS011;24661;53.566;9.910;2022-09-09T07:38:46;14.83;;;4.47;;
38901;SDS011;24661;53.566;9.910;2022-09-09T07:41:19;8.73;;;3.17;;
38901;SDS011;24661;53.566;9.910;2022-09-09T07:43:47;10.80;;;3.70;;
38901;SDS011;24661;53.566;9.910;2022-09-09T07:46:15;4.57;;;2.97;;
38901;SDS011;24661;53.566;9.910;2022-09-09T07:48:44;15.33;;;4.40;;
38901;SDS011;24661;53.566;9.910;2022-09-09T07:51:13;4.93;;;3.20;;
38901;SDS011;24661;53.566;9.910;2022-09-09T07:53:42;3.47;;;2.80;;
38901;SDS011;24661;53.566;9.910;2022-09-09T07:56:09;8.47;;;3.47;;
38901;SDS011;24661;53.566;9.910;2022-09-09T07:58:37;7.30;;;3.53;;
38901;SDS011;24661;53.566;9.910;2022-09-09T08:01:11;8.17;;;3.30;;
38901;SDS011;24661;53.566;9.910;2022-09-09T08:03:39;6.57;;;3.10;;
38901;SDS011;24661;53.566;9.910;2022-09-09T08:06:06;4.90;;;3.03;;
38901;SDS011;24661;53.566;9.910;2022-09-09T08:08:34;4.30;;;2.93;;
38901;SDS011;24661;53.566;9.910;2022-09-09T08:13:37;4.67;;;2.97;;
38901;SDS011;24661;53.566;9.910;2022-09-09T08:16:09;4.93;;;3.57;;
38901;SDS011;24661;53.566;9.910;2022-09-09T08:18:40;7.00;;;3.67;;
38901;SDS011;24661;53.566;9.910;2022-09-09T08:21:07;5.97;;;3.27;;
38901;SDS011;24661;53.566;9.910;2022-09-09T08:23:34;5.80;;;3.87;;
38901;SDS011;24661;53.566;9.910;2022-09-09T08:26:10;6.90;;;4.03;;
38901;SDS011;24661;53.566;9.910;2022-09-09T08:28:38;3.97;;;2.67;;
38901;SDS011;24661;53.566;9.910;2022-09-09T08:31:09;4.07;;;2.93;;
38901;SDS011;24661;53.566;9.910;2022-09-09T08:33:40;7.87;;;2.90;;
38901;SDS011;24661;53.566;9.910;2022-09-09T08:36:08;6.63;;;2.87;;
38901;SDS011;24661;53.566;9.910;2022-09-09T08:38:35;7.57;;;3.53;;
38901;SDS011;24661;53.566;9.910;2022-09-09T08:43:48;6.43;;;3.10;;
38901;SDS011;24661;53.566;9.910;2022-09-09T08:46:33;8.37;;;2.97;;
38901;SDS011;24661;53.566;9.910;2022-09-09T08:49:01;3.50;;;2.30;;
38901;SDS011;24661;53.566;9.910;2022-09-09T08:51:30;5.27;;;2.77;;
38901;SDS011;24661;53.566;9.910;2022-09-09T08:53:58;3.93;;;2.67;;
38901;SDS011;24661;53.566;9.910;2022-09-09T08:56:28;4.57;;;2.40;;
38901;SDS011;24661;53.566;9.910;2022-09-09T08:58:57;7.10;;;3.07;;
38901;SDS011;24661;53.566;9.910;2022-09-09T09:12:30;4.63;;;2.23;;
38901;SDS011;24661;53.566;9.910;2022-09-09T09:15:10;5.50;;;2.07;;
38901;SDS011;24661;53.566;9.910;2022-09-09T09:17:42;3.23;;;1.83;;
38901;SDS011;24661;53.566;9.910;2022-09-09T09:20:15;2.20;;;1.77;;
38901;SDS011;24661;53.566;9.910;2022-09-09T09:22:50;1.60;;;1.40;;
38901;SDS011;24661;53.566;9.910;2022-09-09T09:25:23;1.97;;;1.47;;
38901;SDS011;24661;53.566;9.910;2022-09-09T09:30:36;3.00;;;1.70;;
38901;SDS011;24661;53.566;9.910;2022-09-09T09:33:23;5.80;;;1.20;;
38901;SDS011;24661;53.566;9.910;2022-09-09T09:36:00;3.13;;;1.33;;
38901;SDS011;24661;53.566;9.910;2022-09-09T09:38:28;6.00;;;2.00;;
38901;SDS011;24661;53.566;9.910;2022-09-09T09:40:57;3.20;;;1.37;;
38901;SDS011;24661;53.566;9.910;2022-09-09T09:43:27;2.50;;;1.37;;
38901;SDS011;24661;53.566;9.910;2022-09-09T09:45:54;3.03;;;1.23;;
38901;SDS011;24661;53.566;9.910;2022-09-09T09:48:23;1.47;;;1.17;;
38901;SDS011;24661;53.566;9.910;2022-09-09T09:50:51;1.97;;;1.10;;
38901;SDS011;24661;53.566;9.910;2022-09-09T09:53:27;2.70;;;1.00;;
38901;SDS011;24661;53.566;9.910;2022-09-09T09:58:25;2.27;;;1.23;;
38901;SDS011;24661;53.566;9.910;2022-09-09T10:00:56;4.83;;;1.20;;
38901;SDS011;24661;53.566;9.910;2022-09-09T10:03:31;4.10;;;1.40;;
38901;SDS011;24661;53.566;9.910;2022-09-09T10:06:03;2.73;;;1.47;;
38901;SDS011;24661;53.566;9.910;2022-09-09T10:08:33;4.57;;;1.57;;
38901;SDS011;24661;53.566;9.910;2022-09-09T10:30:50;2.20;;;1.30;;
38901;SDS011;24661;53.566;9.910;2022-09-09T10:36:26;1.33;;;1.23;;
38901;SDS011;24661;53.566;9.910;2022-09-09T10:39:13;3.63;;;1.33;;
38901;SDS011;24661;53.566;9.910;2022-09-09T10:42:00;4.73;;;1.23;;
38901;SDS011;24661;53.566;9.910;2022-09-09T10:50:28;3.17;;;1.50;;
38901;SDS011;24661;53.566;9.910;2022-09-09T10:56:17;6.27;;;1.60;;
38901;SDS011;24661;53.566;9.910;2022-09-09T11:01:36;7.53;;;1.20;;
38901;SDS011;24661;53.566;9.910;2022-09-09T11:04:26;4.23;;;1.57;;
38901;SDS011;24661;53.566;9.910;2022-09-09T11:07:00;1.17;;;1.00;;
38901;SDS011;24661;53.566;9.910;2022-09-09T11:09:35;6.03;;;1.73;;
38901;SDS011;24661;53.566;9.910;2022-09-09T11:12:06;1.50;;;0.90;;
38901;SDS011;24661;53.566;9.910;2022-09-09T11:14:41;2.93;;;1.00;;
38901;SDS011;24661;53.566;9.910;2022-09-09T11:19:43;2.00;;;1.00;;
38901;SDS011;24661;53.566;9.910;2022-09-09T11:30:43;3.23;;;1.40;;
38901;SDS011;24661;53.566;9.910;2022-09-09T11:38:47;5.47;;;1.80;;
38901;SDS011;24661;53.566;9.910;2022-09-09T11:41:16;3.93;;;0.90;;
38901;SDS011;24661;53.566;9.910;2022-09-09T11:43:51;5.47;;;1.37;;
38901;SDS011;24661;53.566;9.910;2022-09-09T11:46:19;3.00;;;1.33;;
38901;SDS011;24661;53.566;9.910;2022-09-09T11:48:59;2.37;;;1.40;;
38901;SDS011;24661;53.566;9.910;2022-09-09T11:51:27;4.47;;;1.20;;
38901;SDS011;24661;53.566;9.910;2022-09-09T11:56:28;1.63;;;1.13;;
38901;SDS011;24661;53.566;9.910;2022-09-09T11:59:26;1.60;;;0.87;;
38901;SDS011;24661;53.566;9.910;2022-09-09T12:01:57;5.20;;;1.43;;
38901;SDS011;24661;53.566;9.910;2022-09-09T12:04:29;3.13;;;1.20;;
38901;SDS011;24661;53.566;9.910;2022-09-09T12:12:37;4.80;;;1.70;;
38901;SDS011;24661;53.566;9.910;2022-09-09T12:17:32;6.17;;;1.53;;
38901;SDS011;24661;53.566;9.910;2022-09-09T12:33:37;2.93;;;1.53;;
38901;SDS011;24661;53.566;9.910;2022-09-09T12:36:29;3.87;;;2.03;;
38901;SDS011;24661;53.566;9.910;2022-09-09T12:38:56;3.20;;;1.33;;
38901;SDS011;24661;53.566;9.910;2022-09-09T12:41:35;4.43;;;2.00;;
38901;SDS011;24661;53.566;9.910;2022-09-09T12:44:04;6.63;;;2.60;;
38901;SDS011;24661;53.566;9.910;2022-09-09T12:46:35;5.40;;;1.67;;
38901;SDS011;24661;53.566;9.910;2022-09-09T12:52:04;5.37;;;1.80;;
38901;SDS011;24661;53.566;9.910;2022-09-09T12:54:34;8.97;;;1.80;;
38901;SDS011;24661;53.566;9.910;2022-09-09T12:57:02;3.70;;;1.63;;
38901;SDS011;24661;53.566;9.910;2022-09-09T12:59:36;4.23;;;1.63;;
38901;SDS011;24661;53.566;9.910;2022-09-09T13:04:52;3.70;;;1.57;;
38901;SDS011;24661;53.566;9.910;2022-09-09T13:07:19;5.73;;;1.70;;
38901;SDS011;24661;53.566;9.910;2022-09-09T13:09:47;11.50;;;2.43;;
38901;SDS011;24661;53.566;9.910;2022-09-09T13:12:23;7.97;;;3.10;;
38901;SDS011;24661;53.566;9.910;2022-09-09T13:14:50;3.73;;;1.57;;
38901;SDS011;24661;53.566;9.910;2022-09-09T13:17:25;5.27;;;2.60;;
38901;SDS011;24661;53.566;9.910;2022-09-09T13:19:54;7.07;;;2.23;;
38901;SDS011;24661;53.566;9.910;2022-09-09T13:27:35;7.37;;;1.37;;
38901;SDS011;24661;53.566;9.910;2022-09-09T13:33:01;2.97;;;1.10;;
38901;SDS011;24661;53.566;9.910;2022-09-09T13:38:21;3.63;;;1.23;;
38901;SDS011;24661;53.566;9.910;2022-09-09T13:46:46;7.03;;;1.83;;
38901;SDS011;24661;53.566;9.910;2022-09-09T13:49:29;2.50;;;1.63;;
38901;SDS011;24661;53.566;9.910;2022-09-09T13:52:08;2.83;;;1.47;;
38901;SDS011;24661;53.566;9.910;2022-09-09T13:54:36;5.87;;;2.73;;
38901;SDS011;24661;53.566;9.910;2022-09-09T13:57:03;6.93;;;2.17;;
38901;SDS011;24661;53.566;9.910;2022-09-09T13:59:30;4.77;;;2.03;;
38901;SDS011;24661;53.566;9.910;2022-09-09T14:01:56;4.20;;;1.90;;
38901;SDS011;24661;53.566;9.910;2022-09-09T14:04:23;7.47;;;2.20;;
38901;SDS011;24661;53.566;9.910;2022-09-09T14:06:50;4.10;;;2.03;;
38901;SDS011;24661;53.566;9.910;2022-09-09T14:09:17;6.37;;;2.90;;
38901;SDS011;24661;53.566;9.910;2022-09-09T14:11:43;14.80;;;2.57;;
38901;SDS011;24661;53.566;9.910;2022-09-09T14:14:13;6.03;;;2.50;;
38901;SDS011;24661;53.566;9.910;2022-09-09T14:16:39;6.93;;;2.20;;
38901;SDS011;24661;53.566;9.910;2022-09-09T14:19:07;9.17;;;3.33;;
38901;SDS011;24661;53.566;9.910;2022-09-09T14:21:34;9.47;;;3.37;;
38901;SDS011;24661;53.566;9.910;2022-09-09T14:24:00;8.40;;;3.00;;
38901;SDS011;24661;53.566;9.910;2022-09-09T14:26:26;6.37;;;3.13;;
38901;SDS011;24661;53.566;9.910;2022-09-09T14:28:54;5.63;;;3.30;;
38901;SDS011;24661;53.566;9.910;2022-09-09T14:31:20;8.53;;;3.30;;
38901;SDS011;24661;53.566;9.910;2022-09-09T14:33:46;4.10;;;3.10;;
38901;SDS011;24661;53.566;9.910;2022-09-09T14:36:12;7.87;;;3.30;;
38901;SDS011;24661;53.566;9.910;2022-09-09T14:38:39;4.83;;;2.37;;
38901;SDS011;24661;53.566;9.910;2022-09-09T14:41:09;7.57;;;3.07;;
38901;SDS011;24661;53.566;9.910;2022-09-09T14:43:42;5.83;;;2.47;;
38901;SDS011;24661;53.566;9.910;2022-09-09T14:46:09;6.87;;;2.60;;
38901;SDS011;24661;53.566;9.910;2022-09-09T14:48:37;4.60;;;2.50;;
38901;SDS011;24661;53.566;9.910;2022-09-09T14:51:06;5.20;;;2.67;;
38901;SDS011;24661;53.566;9.910;2022-09-09T14:53:35;5.30;;;2.50;;
38901;SDS011;24661;53.566;9.910;2022-09-09T14:56:03;4.07;;;2.03;;
38901;SDS011;24661;53.566;9.910;2022-09-09T14:58:39;8.60;;;2.63;;
38901;SDS011;24661;53.566;9.910;2022-09-09T15:01:06;8.33;;;2.53;;
38901;SDS011;24661;53.566;9.910;2022-09-09T15:03:37;3.03;;;2.63;;
38901;SDS011;24661;53.566;9.910;2022-09-09T15:06:05;7.53;;;3.23;;
38901;SDS011;24661;53.566;9.910;2022-09-09T15:08:34;7.17;;;2.77;;
38901;SDS011;24661;53.566;9.910;2022-09-09T15:11:02;4.33;;;2.20;;
38901;SDS011;24661;53.566;9.910;2022-09-09T15:13:29;5.27;;;2.77;;
38901;SDS011;24661;53.566;9.910;2022-09-09T15:15:56;5.90;;;2.90;;
38901;SDS011;24661;53.566;9.910;2022-09-09T15:18:27;6.87;;;3.30;;
38901;SDS011;24661;53.566;9.910;2022-09-09T15:20:54;9.93;;;3.00;;
38901;SDS011;24661;53.566;9.910;2022-09-09T15:23:20;4.60;;;2.57;;
38901;SDS011;24661;53.566;9.910;2022-09-09T15:28:41;4.53;;;2.20;;
38901;SDS011;24661;53.566;9.910;2022-09-09T15:31:21;4.83;;;3.33;;
38901;SDS011;24661;53.566;9.910;2022-09-09T15:36:29;6.30;;;2.93;;
38901;SDS011;24661;53.566;9.910;2022-09-09T15:38:55;7.27;;;2.97;;
38901;SDS011;24661;53.566;9.910;2022-09-09T15:41:22;5.10;;;2.70;;
38901;SDS011;24661;53.566;9.910;2022-09-09T15:43:50;6.13;;;2.70;;
38901;SDS011;24661;53.566;9.910;2022-09-09T15:48:48;6.37;;;3.27;;
38901;SDS011;24661;53.566;9.910;2022-09-09T15:51:24;8.53;;;2.97;;
38901;SDS011;24661;53.566;9.910;2022-09-09T15:53:56;4.43;;;2.30;;
38901;SDS011;24661;53.566;9.910;2022-09-09T15:56:29;2.77;;;1.40;;
38901;SDS011;24661;53.566;9.910;2022-09-09T15:59:13;1.87;;;1.33;;
38901;SDS011;24661;53.566;9.910;2022-09-09T16:02:27;3.30;;;1.20;;
38901;SDS011;24661;53.566;9.910;2022-09-09T16:04:53;1.00;;;1.00;;
38901;SDS011;24661;53.566;9.910;2022-09-09T16:07:23;3.70;;;1.80;;
38901;SDS011;24661;53.566;9.910;2022-09-09T16:09:51;8.97;;;1.83;;
38901;SDS011;24661;53.566;9.910;2022-09-09T16:12:18;3.50;;;1.90;;
38901;SDS011;24661;53.566;9.910;2022-09-09T16:14:46;3.27;;;2.27;;
38901;SDS011;24661;53.566;9.910;2022-09-09T16:17:13;3.03;;;1.40;;
38901;SDS011;24661;53.566;9.910;2022-09-09T16:19:41;3.17;;;1.77;;
38901;SDS011;24661;53.566;9.910;2022-09-09T16:22:14;4.20;;;1.57;;
38901;SDS011;24661;53.566;9.910;2022-09-09T16:24:41;1.83;;;1.33;;
38901;SDS011;24661;53.566;9.910;2022-09-09T16:27:09;2.00;;;1.37;;
38901;SDS011;24661;53.566;9.910;2022-09-09T16:29:46;3.83;;;1.30;;
38901;SDS011;24661;53.566;9.910;2022-09-09T16:32:12;4.53;;;1.23;;
38901;SDS011;24661;53.566;9.910;2022-09-09T16:34:42;1.30;;;0.90;;
38901;SDS011;24661;53.566;9.910;2022-09-09T16:37:09;3.67;;;1.80;;
38901;SDS011;24661;53.566;9.910;2022-09-09T16:39:36;2.47;;;1.27;;
38901;SDS011;24661;53.566;9.910;2022-09-09T16:42:02;3.50;;;1.70;;
38901;SDS011;24661;53.566;9.910;2022-09-09T16:44:29;2.37;;;1.60;;
38901;SDS011;24661;53.566;9.910;2022-09-09T16:46:55;2.30;;;1.30;;
38901;SDS011;24661;53.566;9.910;2022-09-09T16:49:21;3.27;;;1.37;;
38901;SDS011;24661;53.566;9.910;2022-09-09T16:51:48;1.90;;;1.30;;
38901;SDS011;24661;53.566;9.910;2022-09-09T16:54:21;3.23;;;1.33;;
38901;SDS011;24661;53.566;9.910;2022-09-09T16:56:52;3.57;;;1.50;;
38901;SDS011;24661;53.566;9.910;2022-09-09T16:59:20;4.40;;;1.47;;
38901;SDS011;24661;53.566;9.910;2022-09-09T17:01:48;1.10;;;1.00;;
38901;SDS011;24661;53.566;9.910;2022-09-09T17:04:17;2.83;;;1.80;;
38901;SDS011;24661;53.566;9.910;2022-09-09T17:06:52;2.63;;;1.50;;
38901;SDS011;24661;53.566;9.910;2022-09-09T17:09:29;2.23;;;1.73;;
38901;SDS011;24661;53.566;9.910;2022-09-09T17:11:59;2.37;;;1.70;;
38901;SDS011;24661;53.566;9.910;2022-09-09T17:14:30;5.00;;;1.80;;
38901;SDS011;24661;53.566;9.910;2022-09-09T17:16:57;8.20;;;2.13;;
38901;SDS011;24661;53.566;9.910;2022-09-09T17:19:26;3.23;;;1.87;;
38901;SDS011;24661;53.566;9.910;2022-09-09T17:21:56;2.50;;;1.73;;
38901;SDS011;24661;53.566;9.910;2022-09-09T17:24:27;4.60;;;2.33;;
38901;SDS011;24661;53.566;9.910;2022-09-09T17:26:54;2.67;;;1.70;;